createdAt,value
2019-03-24T00:00:18.817Z,13.70
2019-03-24T00:01:18.816Z,14.20
2019-03-24T00:02:18.774Z,14.90
2019-03-24T00:03:18.790Z,14.20
2019-03-24T00:04:18.767Z,15.50
2019-03-24T00:05:18.802Z,16.80
2019-03-24T00:06:18.740Z,16.30
2019-03-24T00:07:18.739Z,16.10
2019-03-24T00:08:18.747Z,15.40
2019-03-24T00:09:18.744Z,15.90
2019-03-24T00:10:18.729Z,14.80
2019-03-24T00:11:18.718Z,14.70
2019-03-24T00:12:18.696Z,14.10
2019-03-24T00:13:18.689Z,13.80
2019-03-24T00:14:18.713Z,11.80
2019-03-24T00:15:26.112Z,11.70
2019-03-24T00:16:18.663Z,10.30
2019-03-24T00:17:18.672Z,9.60
2019-03-24T00:18:18.643Z,11.50
2019-03-24T00:19:18.657Z,9.50
2019-03-24T00:20:18.652Z,10.00
2019-03-24T00:21:18.637Z,9.90
2019-03-24T00:22:18.629Z,9.00
2019-03-24T00:23:18.614Z,12.20
2019-03-24T00:24:18.598Z,10.00
2019-03-24T00:25:18.591Z,9.50
2019-03-24T00:26:18.606Z,10.10
2019-03-24T00:27:18.570Z,10.00
2019-03-24T00:28:18.589Z,10.40
2019-03-24T00:29:18.581Z,11.20
2019-03-24T00:30:18.570Z,9.60
2019-03-24T00:31:18.540Z,9.80
2019-03-24T00:32:18.549Z,10.20
2019-03-24T00:33:18.540Z,10.00
2019-03-24T00:34:18.537Z,9.60
2019-03-24T00:35:18.522Z,11.10
2019-03-24T00:36:18.515Z,11.70
2019-03-24T00:37:18.557Z,10.40
2019-03-24T00:38:18.498Z,10.90
2019-03-24T00:39:18.494Z,11.00
2019-03-24T00:40:18.468Z,11.00
2019-03-24T00:41:18.470Z,12.10
2019-03-24T00:42:18.465Z,11.90
2019-03-24T00:43:18.455Z,15.20
2019-03-24T00:44:18.436Z,11.20
2019-03-24T00:45:18.425Z,11.90
2019-03-24T00:46:18.425Z,11.80
2019-03-24T00:47:18.425Z,11.60
2019-03-24T00:48:18.418Z,11.80
2019-03-24T00:49:18.394Z,11.70
2019-03-24T00:50:18.407Z,11.80
2019-03-24T00:51:18.392Z,11.30
2019-03-24T00:52:18.391Z,11.30
2019-03-24T00:53:18.371Z,12.30
2019-03-24T00:54:18.353Z,12.90
2019-03-24T00:55:18.344Z,12.20
2019-03-24T00:56:18.356Z,12.10
2019-03-24T00:57:18.320Z,12.80
2019-03-24T00:58:18.329Z,12.70
2019-03-24T00:59:18.319Z,13.10
2019-03-24T01:00:18.318Z,12.80
2019-03-24T01:01:18.350Z,13.20
2019-03-24T01:02:18.302Z,13.80
2019-03-24T01:03:18.293Z,13.70
2019-03-24T01:04:18.282Z,13.30
2019-03-24T01:05:18.317Z,13.40
2019-03-24T01:06:18.260Z,15.00
2019-03-24T01:07:18.257Z,14.20
2019-03-24T01:08:18.240Z,14.30
2019-03-24T01:09:18.251Z,14.00
2019-03-24T01:10:18.415Z,14.30
2019-03-24T01:11:18.227Z,14.20
2019-03-24T01:12:18.198Z,14.90
2019-03-24T01:13:18.204Z,15.00
2019-03-24T01:14:18.202Z,15.60
2019-03-24T01:15:18.193Z,15.10
2019-03-24T01:16:18.181Z,14.60
2019-03-24T01:17:18.170Z,15.20
2019-03-24T01:18:18.174Z,16.40
2019-03-24T01:19:18.152Z,16.20
2019-03-24T01:20:18.147Z,15.50
2019-03-24T01:21:18.140Z,15.50
2019-03-24T01:22:18.165Z,16.80
2019-03-24T01:23:18.128Z,15.30
2019-03-24T01:24:18.123Z,15.30
2019-03-24T01:25:18.105Z,15.70
2019-03-24T01:26:18.091Z,15.70
2019-03-24T01:27:18.072Z,15.20
2019-03-24T01:28:18.072Z,15.90
2019-03-24T01:29:18.071Z,16.20
2019-03-24T01:30:18.055Z,17.20
2019-03-24T01:31:18.056Z,16.50
2019-03-24T01:32:18.052Z,16.30
2019-03-24T01:33:18.041Z,16.30
2019-03-24T01:34:18.007Z,16.50
2019-03-24T01:35:18.028Z,16.00
2019-03-24T01:36:18.029Z,15.80
2019-03-24T01:37:17.999Z,17.60
2019-03-24T01:38:18.005Z,17.60
2019-03-24T01:39:18.020Z,18.30
2019-03-24T01:40:17.971Z,18.70
2019-03-24T01:41:17.966Z,18.70
2019-03-24T01:42:17.959Z,17.60
2019-03-24T01:43:17.992Z,16.70
2019-03-24T01:44:17.943Z,16.60
2019-03-24T01:45:17.981Z,18.40
2019-03-24T01:46:17.967Z,16.10
2019-03-24T01:47:17.916Z,15.90
2019-03-24T01:48:17.918Z,16.20
2019-03-24T01:49:17.914Z,16.30
2019-03-24T01:50:17.880Z,15.80
2019-03-24T01:51:17.894Z,16.10
2019-03-24T01:52:17.865Z,15.90
2019-03-24T01:53:17.865Z,16.60
2019-03-24T01:54:17.864Z,14.40
2019-03-24T01:55:17.862Z,15.70
2019-03-24T01:56:17.843Z,15.40
2019-03-24T01:57:17.840Z,16.50
2019-03-24T01:58:17.840Z,16.30
2019-03-24T01:59:17.802Z,16.50
2019-03-24T02:00:17.829Z,15.40
2019-03-24T02:01:17.796Z,15.40
2019-03-24T02:02:17.803Z,14.90
2019-03-24T02:03:17.801Z,14.70
2019-03-24T02:04:17.793Z,14.90
2019-03-24T02:05:17.778Z,14.20
2019-03-24T02:06:17.736Z,13.60
2019-03-24T02:07:17.758Z,13.40
2019-03-24T02:08:17.747Z,12.30
2019-03-24T02:09:17.736Z,13.50
2019-03-24T02:10:17.736Z,14.00
2019-03-24T02:11:17.730Z,12.50
2019-03-24T02:12:17.707Z,12.60
2019-03-24T02:13:17.702Z,13.10
2019-03-24T02:14:17.702Z,12.70
2019-03-24T02:15:17.687Z,13.00
2019-03-24T02:16:17.672Z,12.70
2019-03-24T02:17:17.644Z,13.20
2019-03-24T02:18:17.653Z,12.40
2019-03-24T02:19:17.644Z,12.10
2019-03-24T02:20:17.635Z,12.00
2019-03-24T02:21:17.630Z,12.10
2019-03-24T02:22:17.626Z,12.30
2019-03-24T02:23:17.616Z,11.60
2019-03-24T02:24:17.597Z,11.50
2019-03-24T02:25:17.582Z,11.70
2019-03-24T02:26:17.603Z,11.60
2019-03-24T02:27:17.627Z,12.20
2019-03-24T02:28:17.632Z,12.20
2019-03-24T02:29:17.566Z,12.90
2019-03-24T02:30:17.575Z,12.90
2019-03-24T02:31:17.551Z,12.70
2019-03-24T02:32:17.595Z,13.10
2019-03-24T02:33:17.550Z,14.40
2019-03-24T02:34:17.538Z,14.30
2019-03-24T02:35:17.530Z,13.60
2019-03-24T02:36:17.516Z,13.50
2019-03-24T02:37:17.484Z,12.80
2019-03-24T02:38:17.501Z,14.10
2019-03-24T02:39:17.489Z,13.20
2019-03-24T02:40:17.509Z,14.40
2019-03-24T02:41:17.459Z,14.80
2019-03-24T02:42:17.478Z,13.60
2019-03-24T02:43:17.446Z,13.60
2019-03-24T02:44:17.449Z,14.20
2019-03-24T02:45:17.438Z,13.90
2019-03-24T02:46:24.097Z,13.90
2019-03-24T02:47:17.425Z,14.70
2019-03-24T02:48:17.399Z,13.50
2019-03-24T02:49:17.405Z,14.30
2019-03-24T02:50:17.401Z,15.20
2019-03-24T02:51:17.393Z,16.10
2019-03-24T02:52:17.390Z,16.40
2019-03-24T02:53:17.363Z,15.90
2019-03-24T02:54:17.372Z,17.40
2019-03-24T02:55:17.406Z,17.90
2019-03-24T02:56:17.364Z,17.40
2019-03-24T02:57:17.341Z,18.30
2019-03-24T02:58:17.331Z,17.10
2019-03-24T02:59:17.336Z,18.50
2019-03-24T03:00:17.330Z,17.40
2019-03-24T03:01:17.301Z,16.00
2019-03-24T03:02:17.309Z,17.00
2019-03-24T03:03:17.296Z,16.30
2019-03-24T03:04:17.308Z,17.70
2019-03-24T03:05:17.271Z,17.80
2019-03-24T03:06:17.276Z,16.40
2019-03-24T03:07:17.257Z,15.80
2019-03-24T03:08:17.242Z,16.10
2019-03-24T03:09:17.244Z,16.00
2019-03-24T03:10:17.267Z,16.90
2019-03-24T03:11:17.216Z,17.30
2019-03-24T03:12:17.206Z,16.50
2019-03-24T03:13:17.216Z,17.00
2019-03-24T03:14:17.222Z,16.60
2019-03-24T03:15:17.204Z,17.60
2019-03-24T03:16:17.201Z,16.70
2019-03-24T03:17:17.183Z,17.70
2019-03-24T03:18:17.178Z,16.50
2019-03-24T03:19:17.166Z,16.80
2019-03-24T03:20:17.172Z,16.00
2019-03-24T03:21:17.147Z,17.10
2019-03-24T03:22:17.136Z,15.80
2019-03-24T03:23:17.130Z,17.30
2019-03-24T03:24:17.157Z,17.50
2019-03-24T03:25:17.120Z,17.20
2019-03-24T03:26:17.097Z,17.60
2019-03-24T03:27:17.077Z,16.70
2019-03-24T03:28:17.102Z,16.70
2019-03-24T03:29:17.088Z,17.30
2019-03-24T03:30:17.097Z,17.90
2019-03-24T03:31:17.085Z,18.10
2019-03-24T03:32:17.058Z,17.50
2019-03-24T03:33:17.058Z,17.40
2019-03-24T03:34:17.060Z,16.70
2019-03-24T03:35:17.028Z,16.40
2019-03-24T03:36:17.024Z,17.60
2019-03-24T03:37:17.032Z,16.60
2019-03-24T03:38:17.010Z,16.90
2019-03-24T03:39:17.017Z,16.50
2019-03-24T03:40:16.982Z,16.70
2019-03-24T03:41:17.022Z,18.50
2019-03-24T03:42:16.995Z,16.40
2019-03-24T03:43:16.971Z,16.20
2019-03-24T03:44:16.952Z,16.90
2019-03-24T03:45:16.949Z,17.20
2019-03-24T03:46:16.959Z,17.70
2019-03-24T03:47:16.977Z,18.50
2019-03-24T03:48:16.937Z,16.00
2019-03-24T03:49:16.914Z,16.20
2019-03-24T03:50:16.921Z,16.30
2019-03-24T03:51:16.916Z,16.20
2019-03-24T03:52:16.900Z,17.30
2019-03-24T03:53:16.899Z,16.50
2019-03-24T03:54:16.878Z,15.80
2019-03-24T03:55:16.872Z,16.80
2019-03-24T03:56:16.867Z,15.80
2019-03-24T03:57:16.865Z,16.60
2019-03-24T03:58:16.860Z,15.90
2019-03-24T03:59:16.829Z,16.80
2019-03-24T04:00:16.829Z,16.00
2019-03-24T04:01:16.833Z,16.60
2019-03-24T04:02:16.803Z,16.50
2019-03-24T04:03:16.829Z,15.00
2019-03-24T04:04:16.805Z,15.10
2019-03-24T04:05:16.799Z,15.90
2019-03-24T04:06:16.773Z,15.10
2019-03-24T04:07:16.779Z,14.80
2019-03-24T04:08:16.777Z,15.90
2019-03-24T04:09:16.770Z,15.40
2019-03-24T04:10:16.791Z,15.30
2019-03-24T04:11:16.754Z,15.30
2019-03-24T04:12:16.747Z,15.90
2019-03-24T04:13:16.731Z,14.70
2019-03-24T04:14:16.726Z,15.30
2019-03-24T04:15:16.694Z,16.10
2019-03-24T04:16:16.748Z,15.10
2019-03-24T04:17:16.709Z,14.40
2019-03-24T04:18:16.691Z,14.80
2019-03-24T04:19:16.674Z,14.90
2019-03-24T04:20:16.715Z,14.40
2019-03-24T04:21:16.681Z,14.80
2019-03-24T04:22:16.737Z,14.40
2019-03-24T04:23:16.646Z,14.80
2019-03-24T04:24:16.658Z,15.90
2019-03-24T04:25:16.643Z,15.10
2019-03-24T04:26:16.621Z,13.10
2019-03-24T04:27:16.615Z,13.60
2019-03-24T04:28:16.599Z,13.60
2019-03-24T04:29:16.602Z,14.60
2019-03-24T04:30:16.593Z,14.20
2019-03-24T04:31:16.592Z,15.90
2019-03-24T04:32:16.583Z,15.40
2019-03-24T04:33:16.607Z,15.30
2019-03-24T04:34:16.549Z,14.30
2019-03-24T04:35:16.541Z,15.40
2019-03-24T04:36:16.537Z,14.50
2019-03-24T04:37:16.542Z,14.20
2019-03-24T04:38:16.526Z,13.80
2019-03-24T04:39:16.562Z,13.30
2019-03-24T04:40:16.511Z,13.10
2019-03-24T04:41:16.485Z,13.70
2019-03-24T04:42:16.504Z,13.20
2019-03-24T04:43:16.494Z,12.80
2019-03-24T04:44:16.469Z,12.90
2019-03-24T04:45:16.445Z,11.90
2019-03-24T04:46:16.464Z,13.40
2019-03-24T04:47:16.956Z,14.30
2019-03-24T04:48:16.447Z,12.60
2019-03-24T04:49:16.431Z,13.00
2019-03-24T04:50:16.423Z,11.80
2019-03-24T04:51:16.428Z,13.50
2019-03-24T04:52:16.388Z,12.30
2019-03-24T04:53:16.385Z,12.60
2019-03-24T04:54:16.378Z,12.20
2019-03-24T04:55:16.395Z,14.10
2019-03-24T04:56:16.405Z,13.60
2019-03-24T04:57:16.381Z,13.00
2019-03-24T04:58:16.352Z,14.30
2019-03-24T04:59:16.366Z,14.10
2019-03-24T05:00:16.345Z,14.60
2019-03-24T05:01:16.344Z,13.40
2019-03-24T05:02:16.336Z,13.00
2019-03-24T05:03:16.319Z,14.60
2019-03-24T05:04:16.316Z,13.20
2019-03-24T05:05:16.297Z,13.30
2019-03-24T05:06:16.307Z,13.40
2019-03-24T05:07:16.286Z,15.00
2019-03-24T05:08:16.288Z,14.30
2019-03-24T05:09:16.261Z,14.20
2019-03-24T05:10:16.271Z,13.80
2019-03-24T05:11:16.296Z,13.90
2019-03-24T05:12:16.245Z,14.80
2019-03-24T05:13:16.285Z,14.30
2019-03-24T05:14:16.227Z,14.20
2019-03-24T05:15:16.236Z,14.20
2019-03-24T05:16:16.212Z,13.70
2019-03-24T05:17:23.049Z,13.50
2019-03-24T05:18:16.181Z,13.80
2019-03-24T05:19:16.182Z,13.70
2019-03-24T05:20:16.181Z,13.60
2019-03-24T05:21:16.156Z,13.60
2019-03-24T05:22:16.153Z,13.00
2019-03-24T05:23:16.134Z,14.50
2019-03-24T05:24:16.150Z,12.60
2019-03-24T05:25:16.118Z,13.50
2019-03-24T05:26:16.164Z,12.90
2019-03-24T05:27:16.118Z,11.10
2019-03-24T05:28:16.086Z,11.20
2019-03-24T05:29:16.103Z,11.70
2019-03-24T05:30:16.091Z,11.40
2019-03-24T05:31:16.087Z,11.20
2019-03-24T05:32:16.080Z,11.00
2019-03-24T05:33:16.070Z,10.90
2019-03-24T05:34:16.061Z,11.20
2019-03-24T05:35:16.048Z,11.50
2019-03-24T05:36:16.086Z,12.30
2019-03-24T05:37:16.027Z,12.60
2019-03-24T05:38:16.055Z,12.40
2019-03-24T05:39:16.018Z,12.60
2019-03-24T05:40:16.039Z,13.10
2019-03-24T05:41:16.212Z,11.50
2019-03-24T05:42:16.242Z,12.30
2019-03-24T05:43:19.013Z,12.80
2019-03-24T05:44:16.194Z,12.40
2019-03-24T05:45:15.978Z,11.80
2019-03-24T05:46:15.946Z,12.10
2019-03-24T05:47:15.939Z,12.60
2019-03-24T05:48:15.937Z,12.30
2019-03-24T05:49:15.925Z,12.10
2019-03-24T05:50:15.924Z,13.00
2019-03-24T05:51:15.890Z,11.30
2019-03-24T05:52:15.914Z,11.00
2019-03-24T05:53:15.908Z,12.30
2019-03-24T05:54:15.881Z,12.50
2019-03-24T05:55:15.868Z,12.50
2019-03-24T05:56:15.873Z,12.60
2019-03-24T05:57:15.872Z,12.60
2019-03-24T05:58:15.858Z,11.30
2019-03-24T05:59:15.847Z,12.20
2019-03-24T06:00:15.830Z,12.50
2019-03-24T06:01:15.835Z,11.80
2019-03-24T06:02:15.819Z,12.80
2019-03-24T06:03:15.826Z,11.60
2019-03-24T06:04:15.787Z,12.00
2019-03-24T06:05:15.836Z,11.60
2019-03-24T06:06:15.792Z,11.50
2019-03-24T06:07:15.780Z,11.90
2019-03-24T06:08:15.754Z,11.30
2019-03-24T06:09:15.902Z,12.30
2019-03-24T06:10:15.764Z,12.10
2019-03-24T06:11:15.727Z,12.30
2019-03-24T06:12:15.723Z,11.40
2019-03-24T06:13:15.766Z,11.50
2019-03-24T06:14:15.710Z,12.00
2019-03-24T06:15:15.703Z,11.90
2019-03-24T06:16:15.711Z,12.10
2019-03-24T06:17:15.690Z,12.00
2019-03-24T06:18:15.688Z,12.00
2019-03-24T06:19:15.676Z,13.00
2019-03-24T06:20:15.808Z,12.30
2019-03-24T06:21:15.694Z,11.90
2019-03-24T06:22:15.636Z,12.30
2019-03-24T06:23:15.631Z,12.90
2019-03-24T06:24:15.638Z,13.10
2019-03-24T06:25:15.608Z,12.20
2019-03-24T06:26:15.604Z,12.80
2019-03-24T06:27:15.604Z,13.00
2019-03-24T06:28:15.602Z,12.10
2019-03-24T06:29:15.636Z,14.30
2019-03-24T06:30:15.588Z,12.40
2019-03-24T06:31:15.578Z,13.40
2019-03-24T06:32:15.573Z,14.40
2019-03-24T06:33:15.557Z,13.00
2019-03-24T06:34:15.525Z,12.00
2019-03-24T06:35:15.545Z,13.00
2019-03-24T06:36:15.528Z,12.60
2019-03-24T06:37:15.528Z,13.20
2019-03-24T06:38:15.545Z,13.00
2019-03-24T06:39:15.512Z,13.60
2019-03-24T06:40:15.498Z,13.00
2019-03-24T06:41:15.527Z,12.70
2019-03-24T06:42:15.480Z,13.50
2019-03-24T06:43:15.514Z,13.30
2019-03-24T06:44:15.502Z,13.30
2019-03-24T06:45:15.483Z,13.60
2019-03-24T06:46:15.484Z,14.70
2019-03-24T06:47:15.463Z,14.40
2019-03-24T06:48:15.433Z,14.00
2019-03-24T06:49:15.411Z,14.10
2019-03-24T06:50:15.448Z,14.40
2019-03-24T06:51:15.431Z,13.90
2019-03-24T06:52:15.377Z,14.10
2019-03-24T06:53:15.392Z,14.10
2019-03-24T06:54:15.405Z,13.90
2019-03-24T06:55:15.369Z,14.00
2019-03-24T06:56:15.349Z,15.40
2019-03-24T06:57:16.923Z,13.90
2019-03-24T06:58:15.342Z,13.90
2019-03-24T06:59:15.326Z,14.10
2019-03-24T07:00:15.302Z,14.80
2019-03-24T07:01:15.313Z,15.00
2019-03-24T07:02:15.284Z,15.20
2019-03-24T07:03:15.272Z,14.50
2019-03-24T07:04:15.288Z,15.80
2019-03-24T07:05:15.283Z,15.10
2019-03-24T07:06:15.283Z,15.20
2019-03-24T07:07:15.262Z,15.00
2019-03-24T07:08:15.243Z,16.30
2019-03-24T07:09:15.388Z,16.90
2019-03-24T07:10:15.241Z,17.30
2019-03-24T07:11:15.259Z,16.70
2019-03-24T07:12:15.216Z,17.00
2019-03-24T07:13:15.185Z,16.50
2019-03-24T07:14:15.195Z,16.60
2019-03-24T07:15:15.192Z,16.70
2019-03-24T07:16:15.173Z,17.00
2019-03-24T07:17:15.180Z,18.80
2019-03-24T07:18:15.153Z,18.10
2019-03-24T07:19:15.135Z,17.30
2019-03-24T07:20:15.152Z,17.90
2019-03-24T07:21:15.115Z,17.30
2019-03-24T07:22:15.129Z,16.40
2019-03-24T07:23:15.121Z,16.70
2019-03-24T07:24:15.095Z,17.70
2019-03-24T07:25:15.082Z,18.40
2019-03-24T07:26:15.067Z,18.50
2019-03-24T07:27:15.079Z,18.10
2019-03-24T07:28:15.055Z,19.10
2019-03-24T07:29:15.061Z,19.00
2019-03-24T07:30:15.050Z,18.90
2019-03-24T07:31:15.055Z,20.00
2019-03-24T07:32:15.027Z,18.50
2019-03-24T07:33:15.033Z,19.00
2019-03-24T07:34:15.007Z,18.90
2019-03-24T07:35:15.021Z,18.60
2019-03-24T07:36:15.006Z,19.00
2019-03-24T07:37:14.997Z,19.00
2019-03-24T07:38:14.961Z,20.40
2019-03-24T07:39:14.965Z,20.30
2019-03-24T07:40:14.969Z,20.60
2019-03-24T07:41:14.963Z,20.80
2019-03-24T07:42:14.958Z,20.60
2019-03-24T07:43:14.922Z,21.60
2019-03-24T07:44:14.941Z,20.90
2019-03-24T07:45:14.916Z,21.50
2019-03-24T07:46:14.909Z,21.00
2019-03-24T07:47:14.898Z,21.50
2019-03-24T07:48:18.986Z,20.50
2019-03-24T07:49:14.929Z,20.60
2019-03-24T07:50:14.922Z,21.00
2019-03-24T07:51:14.853Z,19.80
2019-03-24T07:52:14.857Z,20.20
2019-03-24T07:53:14.849Z,20.40
2019-03-24T07:54:14.836Z,20.40
2019-03-24T07:55:14.826Z,20.50
2019-03-24T07:56:14.829Z,20.40
2019-03-24T07:57:14.813Z,21.50
2019-03-24T07:58:14.811Z,20.70
2019-03-24T07:59:14.802Z,21.60
2019-03-24T08:00:14.786Z,21.20
2019-03-24T08:01:14.780Z,21.70
2019-03-24T08:02:14.778Z,20.70
2019-03-24T08:03:14.752Z,21.30
2019-03-24T08:04:14.744Z,20.70
2019-03-24T08:05:14.748Z,21.00
2019-03-24T08:06:14.728Z,21.20
2019-03-24T08:07:14.733Z,21.50
2019-03-24T08:08:14.858Z,19.50
2019-03-24T08:09:14.722Z,21.20
2019-03-24T08:10:14.697Z,19.40
2019-03-24T08:11:14.742Z,21.30
2019-03-24T08:12:14.683Z,20.80
2019-03-24T08:13:14.669Z,22.40
2019-03-24T08:14:14.704Z,21.80
2019-03-24T08:15:14.646Z,21.90
2019-03-24T08:16:14.646Z,20.30
2019-03-24T08:17:14.629Z,19.70
2019-03-24T08:18:14.613Z,21.00
2019-03-24T08:19:14.628Z,20.90
2019-03-24T08:20:14.611Z,21.50
2019-03-24T08:21:14.602Z,21.30
2019-03-24T08:22:14.598Z,19.80
2019-03-24T08:23:14.629Z,20.60
2019-03-24T08:24:14.583Z,21.20
2019-03-24T08:25:14.570Z,20.70
2019-03-24T08:26:14.565Z,19.80
2019-03-24T08:27:14.589Z,19.50
2019-03-24T08:28:14.536Z,20.80
2019-03-24T08:29:14.522Z,19.50
2019-03-24T08:30:14.523Z,19.40
2019-03-24T08:31:14.510Z,19.10
2019-03-24T08:32:14.513Z,19.50
2019-03-24T08:33:14.497Z,19.30
2019-03-24T08:34:14.495Z,19.50
2019-03-24T08:35:14.500Z,19.20
2019-03-24T08:36:15.671Z,19.80
2019-03-24T08:37:14.453Z,20.40
2019-03-24T08:38:14.448Z,19.60
2019-03-24T08:39:14.456Z,20.00
2019-03-24T08:40:14.444Z,19.60
2019-03-24T08:41:14.417Z,19.10
2019-03-24T08:42:14.428Z,19.50
2019-03-24T08:43:14.415Z,19.50
2019-03-24T08:44:14.397Z,18.70
2019-03-24T08:45:14.382Z,19.80
2019-03-24T08:46:14.385Z,20.70
2019-03-24T08:47:14.388Z,20.40
2019-03-24T08:48:14.401Z,20.00
2019-03-24T08:49:14.360Z,20.20
2019-03-24T08:50:14.358Z,21.20
2019-03-24T08:51:14.380Z,20.90
2019-03-24T08:52:14.339Z,24.10
2019-03-24T08:53:14.302Z,21.10
2019-03-24T08:54:14.322Z,20.70
2019-03-24T08:55:14.347Z,20.30
2019-03-24T08:56:14.302Z,20.90
2019-03-24T08:57:14.285Z,20.10
2019-03-24T08:58:14.279Z,20.40
2019-03-24T08:59:14.264Z,19.10
2019-03-24T09:00:14.273Z,20.20
2019-03-24T09:01:14.236Z,21.70
2019-03-24T09:02:14.250Z,22.30
2019-03-24T09:03:14.227Z,20.50
2019-03-24T09:04:14.226Z,20.40
2019-03-24T09:05:14.220Z,20.40
2019-03-24T09:06:14.209Z,19.70
2019-03-24T09:07:14.233Z,19.70
2019-03-24T09:08:14.196Z,19.60
2019-03-24T09:09:14.170Z,19.30
2019-03-24T09:10:14.174Z,20.20
2019-03-24T09:11:14.153Z,19.90
2019-03-24T09:12:14.165Z,20.40
2019-03-24T09:13:14.123Z,19.20
2019-03-24T09:14:14.141Z,19.00
2019-03-24T09:15:14.135Z,18.40
2019-03-24T09:16:14.128Z,19.90
2019-03-24T09:17:14.100Z,19.40
2019-03-24T09:18:14.077Z,20.30
2019-03-24T09:19:14.076Z,20.50
2019-03-24T09:20:14.069Z,19.90
2019-03-24T09:21:14.064Z,21.10
2019-03-24T09:22:14.102Z,21.00
2019-03-24T09:23:14.033Z,21.60
2019-03-24T09:24:14.044Z,22.40
2019-03-24T09:25:14.020Z,21.30
2019-03-24T09:26:14.061Z,21.70
2019-03-24T09:27:14.018Z,23.00
2019-03-24T09:28:13.998Z,22.10
2019-03-24T09:29:13.996Z,22.00
2019-03-24T09:30:13.979Z,22.40
2019-03-24T09:31:13.960Z,21.80
2019-03-24T09:32:13.952Z,21.70
2019-03-24T09:33:13.973Z,20.50
2019-03-24T09:34:13.961Z,22.00
2019-03-24T09:35:13.960Z,21.50
2019-03-24T09:36:13.923Z,23.80
2019-03-24T09:37:13.962Z,22.00
2019-03-24T09:38:14.078Z,23.20
2019-03-24T09:39:13.910Z,21.60
2019-03-24T09:40:13.888Z,23.00
2019-03-24T09:41:13.887Z,22.10
2019-03-24T09:42:13.857Z,21.80
2019-03-24T09:43:13.883Z,22.00
2019-03-24T09:44:13.844Z,20.80
2019-03-24T09:45:13.853Z,22.20
2019-03-24T09:46:13.887Z,23.00
2019-03-24T09:47:13.876Z,23.70
2019-03-24T09:48:13.847Z,23.50
2019-03-24T09:49:13.812Z,22.90
2019-03-24T09:50:13.811Z,23.40
2019-03-24T09:51:13.778Z,23.80
2019-03-24T09:52:13.788Z,23.30
2019-03-24T09:53:13.779Z,22.70
2019-03-24T09:54:13.783Z,23.60
2019-03-24T09:55:13.764Z,22.60
2019-03-24T09:56:13.745Z,22.00
2019-03-24T09:57:13.756Z,23.20
2019-03-24T09:58:13.728Z,22.10
2019-03-24T09:59:13.716Z,22.90
2019-03-24T10:00:13.729Z,22.20
2019-03-24T10:01:13.717Z,22.20
2019-03-24T10:02:13.710Z,22.40
2019-03-24T10:03:13.701Z,23.10
2019-03-24T10:04:13.682Z,22.40
2019-03-24T10:05:13.677Z,23.30
2019-03-24T10:06:13.647Z,22.10
2019-03-24T10:07:13.653Z,24.40
2019-03-24T10:08:13.637Z,23.90
2019-03-24T10:09:13.630Z,24.90
2019-03-24T10:10:13.624Z,23.40
2019-03-24T10:11:13.631Z,24.30
2019-03-24T10:12:13.613Z,24.50
2019-03-24T10:13:13.596Z,24.30
2019-03-24T10:14:13.603Z,24.60
2019-03-24T10:15:13.622Z,23.70
2019-03-24T10:16:13.586Z,24.30
2019-03-24T10:17:13.555Z,25.60
2019-03-24T10:18:13.552Z,24.80
2019-03-24T10:19:14.431Z,24.50
2019-03-24T10:20:13.517Z,25.70
2019-03-24T10:21:13.535Z,24.20
2019-03-24T10:22:13.522Z,24.20
2019-03-24T10:23:13.525Z,24.60
2019-03-24T10:24:13.516Z,24.10
2019-03-24T10:25:13.497Z,24.20
2019-03-24T10:26:13.488Z,23.90
2019-03-24T10:27:13.474Z,23.70
2019-03-24T10:28:13.471Z,24.70
2019-03-24T10:29:13.468Z,22.50
2019-03-24T10:30:13.464Z,22.90
2019-03-24T10:31:13.453Z,21.40
2019-03-24T10:32:13.445Z,21.50
2019-03-24T10:33:13.429Z,19.10
2019-03-24T10:34:13.413Z,18.70
2019-03-24T10:35:13.406Z,17.80
2019-03-24T10:36:13.395Z,17.30
2019-03-24T10:37:13.402Z,16.60
2019-03-24T10:38:13.371Z,16.20
2019-03-24T10:39:13.384Z,15.70
2019-03-24T10:40:13.348Z,15.40
2019-03-24T10:41:13.350Z,16.10
2019-03-24T10:42:13.337Z,15.30
2019-03-24T10:43:13.345Z,15.90
2019-03-24T10:44:13.317Z,16.60
2019-03-24T10:45:13.331Z,17.80
2019-03-24T10:46:13.348Z,18.00
2019-03-24T10:47:13.289Z,19.00
2019-03-24T10:48:13.302Z,18.70
2019-03-24T10:49:23.942Z,17.80
2019-03-24T10:50:14.436Z,16.40
2019-03-24T10:51:13.313Z,17.50
2019-03-24T10:52:13.260Z,15.90
2019-03-24T10:53:13.236Z,15.30
2019-03-24T10:54:13.283Z,14.10
2019-03-24T10:55:13.246Z,14.40
2019-03-24T10:56:13.231Z,14.10
2019-03-24T10:57:13.209Z,14.80
2019-03-24T10:58:13.263Z,13.90
2019-03-24T10:59:13.213Z,15.20
2019-03-24T11:00:13.238Z,16.10
2019-03-24T11:01:13.190Z,14.10
2019-03-24T11:02:13.167Z,14.10
2019-03-24T11:03:13.175Z,13.50
2019-03-24T11:04:13.151Z,15.10
2019-03-24T11:05:13.197Z,12.60
2019-03-24T11:06:13.195Z,13.00
2019-03-24T11:07:13.141Z,11.70
2019-03-24T11:08:13.116Z,11.50
2019-03-24T11:09:13.115Z,11.60
2019-03-24T11:10:13.161Z,11.90
2019-03-24T11:11:13.090Z,10.90
2019-03-24T11:12:13.088Z,12.00
2019-03-24T11:13:13.081Z,11.70
2019-03-24T11:14:13.074Z,11.90
2019-03-24T11:15:13.113Z,11.80
2019-03-24T11:16:13.073Z,11.60
2019-03-24T11:17:13.043Z,11.80
2019-03-24T11:18:13.046Z,11.80
2019-03-24T11:19:13.034Z,10.10
2019-03-24T11:20:13.036Z,11.40
2019-03-24T11:21:13.038Z,10.70
2019-03-24T11:22:13.001Z,10.40
2019-03-24T11:23:12.987Z,11.10
2019-03-24T11:24:13.040Z,11.00
2019-03-24T11:25:12.981Z,10.80
2019-03-24T11:26:12.982Z,11.70
2019-03-24T11:27:12.959Z,11.20
2019-03-24T11:28:12.970Z,10.60
2019-03-24T11:29:12.998Z,13.00
2019-03-24T11:30:12.949Z,10.80
2019-03-24T11:31:12.948Z,9.90
2019-03-24T11:32:12.949Z,9.90
2019-03-24T11:33:12.927Z,9.80
2019-03-24T11:34:12.928Z,9.80
2019-03-24T11:35:12.907Z,11.10
2019-03-24T11:36:12.903Z,10.90
2019-03-24T11:37:12.888Z,9.60
2019-03-24T11:38:12.882Z,10.20
2019-03-24T11:39:12.871Z,9.90
2019-03-24T11:40:12.867Z,9.90
2019-03-24T11:41:12.867Z,10.30
2019-03-24T11:42:12.847Z,9.30
2019-03-24T11:43:12.847Z,9.40
2019-03-24T11:44:12.875Z,9.50
2019-03-24T11:45:12.816Z,9.10
2019-03-24T11:46:12.825Z,10.50
2019-03-24T11:47:12.812Z,10.40
2019-03-24T11:48:12.810Z,9.60
2019-03-24T11:49:12.784Z,10.20
2019-03-24T11:50:12.798Z,9.40
2019-03-24T11:51:12.794Z,9.90
2019-03-24T11:52:12.785Z,10.50
2019-03-24T11:53:12.765Z,10.00
2019-03-24T11:54:12.767Z,9.40
2019-03-24T11:55:12.743Z,9.90
2019-03-24T11:56:12.732Z,10.20
2019-03-24T11:57:12.775Z,9.20
2019-03-24T11:58:12.726Z,10.50
2019-03-24T11:59:12.714Z,10.50
2019-03-24T12:00:12.719Z,10.50
2019-03-24T12:01:12.701Z,9.50
2019-03-24T12:02:12.680Z,10.30
2019-03-24T12:03:12.699Z,9.20
2019-03-24T12:04:12.733Z,8.50
2019-03-24T12:05:12.675Z,8.70
2019-03-24T12:06:14.771Z,7.90
2019-03-24T12:07:12.635Z,8.50
2019-03-24T12:08:12.640Z,8.60
2019-03-24T12:09:12.634Z,8.10
2019-03-24T12:10:12.630Z,8.40
2019-03-24T12:11:12.625Z,7.30
2019-03-24T12:12:12.613Z,7.30
2019-03-24T12:13:12.625Z,7.40
2019-03-24T12:14:12.610Z,7.10
2019-03-24T12:15:12.600Z,7.90
2019-03-24T12:16:12.594Z,7.30
2019-03-24T12:17:12.626Z,7.30
2019-03-24T12:18:12.573Z,6.40
2019-03-24T12:19:12.554Z,6.60
2019-03-24T12:20:12.557Z,6.70
2019-03-24T12:21:12.548Z,7.30
2019-03-24T12:22:12.545Z,6.90
2019-03-24T12:23:12.535Z,6.40
2019-03-24T12:24:12.543Z,6.60
2019-03-24T12:25:12.531Z,6.60
2019-03-24T12:26:12.518Z,6.30
2019-03-24T12:27:12.523Z,5.70
2019-03-24T12:28:12.506Z,6.40
2019-03-24T12:29:12.511Z,5.10
2019-03-24T12:30:12.495Z,6.80
2019-03-24T12:31:12.484Z,6.40
2019-03-24T12:32:12.497Z,5.80
2019-03-24T12:33:12.471Z,7.50
2019-03-24T12:34:12.579Z,6.70
2019-03-24T12:35:12.472Z,6.20
2019-03-24T12:36:12.440Z,6.30
2019-03-24T12:37:12.462Z,6.30
2019-03-24T12:38:12.457Z,6.60
2019-03-24T12:39:12.465Z,6.30
2019-03-24T12:40:12.431Z,6.10
2019-03-24T12:41:12.427Z,5.90
2019-03-24T12:42:12.436Z,6.10
2019-03-24T12:43:19.306Z,5.70
2019-03-24T12:44:12.420Z,6.20
2019-03-24T12:45:12.427Z,7.00
2019-03-24T12:46:12.410Z,6.40
2019-03-24T12:47:12.409Z,5.90
2019-03-24T12:48:12.417Z,6.70
2019-03-24T12:49:12.395Z,7.10
2019-03-24T12:50:12.390Z,6.30
2019-03-24T12:51:12.401Z,7.60
2019-03-24T12:52:13.218Z,6.60
2019-03-24T12:53:12.382Z,6.90
2019-03-24T12:54:12.358Z,6.10
2019-03-24T12:55:12.374Z,7.30